Terminal Aerodrome Forecast
Issued by NWS

Home | Current Version | Previous Version | Text Only | Print | Product List | Glossary On
Versions: 1 2 3 4 5 6 7 8 9 10 11 12 13 14 15 16 17 18 19 20 21 22 23 24 25 26 27 28 29 30 31 32 33 34 35 36 37 38 39 40 41
000
FTUS43 KDLH 272100 AAA
TAFHYR
TAF AMD
KHYR 272101Z 2721/2818 25008G14KT P6SM VCTS BKN060CB
     FM280100 VRB03KT P6SM FEW050
     FM280900 00000KT 6SM BR SKC
     FM281300 14005KT P6SM FEW070
     FM281600 18009KT P6SM SCT060=

USA.gov is the U.S. government's official web portal to all federal, state and local government web resources and services.